Zamosc, Poland
Current Conditions -  °F | °C
As of 12:30 PM on Thursday 27 Nov 2014 (Local Time) from EPLB Reporting Station
Broken Clouds Broken Clouds  
Wind Chill: 20°   Ceiling: 700
Heat Index: 28°   Visibility: 4mi
Dew Point: 27°   Wind: 9mph
Humidity: 93%   Direction: 90°E
Pressure: 30.24"   Gusts: NA
Location:  50.73°N, 23.26°E
Report Text: EPLB 271030Z 09008KT 6000 BKN007 M02/M03 Q1024
Loading
Personal Weather Stations






























Interactive Weather Map New forecast layout! Learn more

10-Day Weather Forecast

Advertisements
Track Severe Weather on mobile